F/V Lisa Melinda — WYC3746 — position and weather

sailwx.info

Track history (hours):
 
Tides and Currents Weather Stations Pressure Air Temp Water Temp Dewpoint Dewpoint Depression Visibility Wind Speed Wind Dir Waves Ship Positions

F/V Lisa Melinda

Owner: LISA MELINDA FISHERIES INC, NEWPORT, OR. More information available from US FCC via Universal Licensing System and Coast Guard Vessel Documentation Center.

Last reported at 2018-Jan-10 22:58 UTC. Time now 2018-Feb-22 03:14 UTC.
Position N 47°02' W 125°21'.
Warning: this ship's position is 42 days out of date.

Length 26 m; draft 3.6 m.

Type: Fishing. MMSI: 366738920.

Date/timePositionNaut miles runAvg speedWind from/ knotsBaromVisibWave heightAir tempDewpointWater temp
2018-Jan-10 22:58N 47°02' W 125°21'711.7
2018-Jan-10 22:23N 46°56' W 125°16'1 2.3
2018-Jan-10 22:00N 46°55' W 125°16'4 7.8
2018-Jan-10 21:30N 46°52' W 125°13'4 7.4
2018-Jan-10 20:59N 46°48' W 125°10'3 6.4
2018-Jan-10 20:30N 46°46' W 125°08'6 6.1
2018-Jan-10 19:29N 46°40' W 125°04'3 6.0
2018-Jan-10 19:00N 46°38' W 125°02'3 6.0
2018-Jan-10 18:30N 46°35' W 124°60'3 6.2
2018-Jan-10 18:00N 46°32' W 124°57'5 6.4
2018-Jan-10 17:15N 46°28' W 124°54'2 6.4
2018-Jan-10 17:01N 46°27' W 124°53'3 6.5
2018-Jan-10 16:31N 46°24' W 124°51'3 6.6
2018-Jan-10 16:00N 46°21' W 124°48'3 6.5
2018-Jan-10 15:31N 46°18' W 124°46'3 6.7
2018-Jan-10 15:00N 46°15' W 124°44'3 6.7
2018-Jan-10 14:30N 46°12' W 124°42'3 6.7
2018-Jan-10 14:01N 46°09' W 124°40'4 6.8
2018-Jan-10 13:22N 46°05' W 124°39'2 6.8
2018-Jan-10 13:01N 46°02' W 124°38'3 6.8
2018-Jan-10 12:30N 45°59' W 124°37'3 6.8
2018-Jan-10 12:00N 45°56' W 124°36'3 6.6
2018-Jan-10 11:30N 45°52' W 124°36'3 6.5
2018-Jan-10 11:00N 45°49' W 124°35'3 6.5
2018-Jan-10 10:30N 45°46' W 124°34'3 6.4
2018-Jan-10 10:00N 45°43' W 124°33'3 6.2
2018-Jan-10 09:30N 45°40' W 124°32'3 6.1
2018-Jan-10 09:00N 45°37' W 124°31'3 6.0
2018-Jan-10 08:30N 45°34' W 124°31'3 5.8
2018-Jan-10 08:00N 45°31' W 124°30'3 5.7
2018-Jan-10 07:30N 45°28' W 124°29'3 5.7
2018-Jan-10 07:01N 45°25' W 124°28'3 5.5
2018-Jan-10 06:30N 45°23' W 124°28'3 5.5
2018-Jan-10 06:00N 45°20' W 124°27'3 5.7
2018-Jan-10 05:30N 45°17' W 124°26'3 5.8
2018-Jan-10 05:00N 45°14' W 124°26'3 5.3
2018-Jan-10 04:29N 45°12' W 124°25'3 5.3
2018-Jan-10 03:58N 45°09' W 124°24'3 5.4
2018-Jan-10 03:30N 45°06' W 124°24'  
Track history (hours):
 
Tides and Currents Weather Stations Pressure Air Temp Water Temp Dewpoint Dewpoint Depression Visibility Wind Speed Wind Dir Waves Ship Positions

F/V Lisa Melinda

Owner: LISA MELINDA FISHERIES INC, NEWPORT, OR. More information available from US FCC via Universal Licensing System and Coast Guard Vessel Documentation Center.

Last reported at 2018-Jan-10 22:58 UTC. Time now 2018-Feb-22 03:14 UTC.
Position N 47°02' W 125°21'.
Warning: this ship's position is 42 days out of date.

Length 26 m; draft 3.6 m.

Type: Fishing. MMSI: 366738920.

Date/timePositionNaut miles runAvg speedWind from/ knotsBaromVisibWave heightAir tempDewpointWater temp
2018-Jan-10 22:58N 47°02' W 125°21'711.7
2018-Jan-10 22:23N 46°56' W 125°16'1 2.3
2018-Jan-10 22:00N 46°55' W 125°16'4 7.8
2018-Jan-10 21:30N 46°52' W 125°13'4 7.4
2018-Jan-10 20:59N 46°48' W 125°10'3 6.4
2018-Jan-10 20:30N 46°46' W 125°08'6 6.1
2018-Jan-10 19:29N 46°40' W 125°04'3 6.0
2018-Jan-10 19:00N 46°38' W 125°02'3 6.0
2018-Jan-10 18:30N 46°35' W 124°60'3 6.2
2018-Jan-10 18:00N 46°32' W 124°57'5 6.4
2018-Jan-10 17:15N 46°28' W 124°54'2 6.4
2018-Jan-10 17:01N 46°27' W 124°53'3 6.5
2018-Jan-10 16:31N 46°24' W 124°51'3 6.6
2018-Jan-10 16:00N 46°21' W 124°48'3 6.5
2018-Jan-10 15:31N 46°18' W 124°46'3 6.7
2018-Jan-10 15:00N 46°15' W 124°44'3 6.7
2018-Jan-10 14:30N 46°12' W 124°42'3 6.7
2018-Jan-10 14:01N 46°09' W 124°40'4 6.8
2018-Jan-10 13:22N 46°05' W 124°39'2 6.8
2018-Jan-10 13:01N 46°02' W 124°38'3 6.8
2018-Jan-10 12:30N 45°59' W 124°37'3 6.8
2018-Jan-10 12:00N 45°56' W 124°36'3 6.6
2018-Jan-10 11:30N 45°52' W 124°36'3 6.5
2018-Jan-10 11:00N 45°49' W 124°35'3 6.5
2018-Jan-10 10:30N 45°46' W 124°34'3 6.4
2018-Jan-10 10:00N 45°43' W 124°33'3 6.2
2018-Jan-10 09:30N 45°40' W 124°32'3 6.1
2018-Jan-10 09:00N 45°37' W 124°31'3 6.0
2018-Jan-10 08:30N 45°34' W 124°31'3 5.8
2018-Jan-10 08:00N 45°31' W 124°30'3 5.7
2018-Jan-10 07:30N 45°28' W 124°29'3 5.7
2018-Jan-10 07:01N 45°25' W 124°28'3 5.5
2018-Jan-10 06:30N 45°23' W 124°28'3 5.5
2018-Jan-10 06:00N 45°20' W 124°27'3 5.7
2018-Jan-10 05:30N 45°17' W 124°26'3 5.8
2018-Jan-10 05:00N 45°14' W 124°26'3 5.3
2018-Jan-10 04:29N 45°12' W 124°25'3 5.3
2018-Jan-10 03:58N 45°09' W 124°24'3 5.4
2018-Jan-10 03:30N 45°06' W 124°24'  

Dump ship's entire track history